sensor_id;sensor_type;location;lat;lon;timestamp;temperature;humidity
16158;DHT22;8184;60.256;18.694;2023-12-28T00:00:05;-5.80;99.90
16158;DHT22;8184;60.256;18.694;2023-12-28T00:02:35;-5.80;99.90
16158;DHT22;8184;60.256;18.694;2023-12-28T00:05:04;-5.90;99.90
16158;DHT22;8184;60.256;18.694;2023-12-28T00:07:32;-5.80;99.90
16158;DHT22;8184;60.256;18.694;2023-12-28T00:10:00;-5.90;99.90
16158;DHT22;8184;60.256;18.694;2023-12-28T00:12:30;-5.90;99.90
16158;DHT22;8184;60.256;18.694;2023-12-28T00:14:59;-6.00;99.90
16158;DHT22;8184;60.256;18.694;2023-12-28T00:17:27;-6.00;99.90
16158;DHT22;8184;60.256;18.694;2023-12-28T00:19:55;-6.00;99.90
16158;DHT22;8184;60.256;18.694;2023-12-28T00:22:24;-5.90;99.90
16158;DHT22;8184;60.256;18.694;2023-12-28T00:24:52;-5.90;99.90
16158;DHT22;8184;60.256;18.694;2023-12-28T00:27:21;-6.00;99.90
16158;DHT22;8184;60.256;18.694;2023-12-28T00:29:51;-5.90;99.90
16158;DHT22;8184;60.256;18.694;2023-12-28T00:32:19;-5.90;99.90
16158;DHT22;8184;60.256;18.694;2023-12-28T00:34:47;-5.90;99.90
16158;DHT22;8184;60.256;18.694;2023-12-28T00:37:16;-5.90;99.90
16158;DHT22;8184;60.256;18.694;2023-12-28T00:39:44;-5.90;99.90
16158;DHT22;8184;60.256;18.694;2023-12-28T00:42:17;-5.90;99.90
16158;DHT22;8184;60.256;18.694;2023-12-28T00:44:46;-5.90;99.90
16158;DHT22;8184;60.256;18.694;2023-12-28T00:47:15;-5.90;99.90
16158;DHT22;8184;60.256;18.694;2023-12-28T00:49:44;-6.00;99.90
16158;DHT22;8184;60.256;18.694;2023-12-28T00:52:12;-6.00;99.90
16158;DHT22;8184;60.256;18.694;2023-12-28T00:54:41;-6.00;99.90
16158;DHT22;8184;60.256;18.694;2023-12-28T00:57:09;-6.00;99.90
16158;DHT22;8184;60.256;18.694;2023-12-28T00:59:38;-6.00;99.90
16158;DHT22;8184;60.256;18.694;2023-12-28T01:02:06;-6.00;99.90
16158;DHT22;8184;60.256;18.694;2023-12-28T01:04:36;-6.00;99.90
16158;DHT22;8184;60.256;18.694;2023-12-28T01:07:04;-6.00;99.90
16158;DHT22;8184;60.256;18.694;2023-12-28T01:09:33;-6.00;99.90
16158;DHT22;8184;60.256;18.694;2023-12-28T01:12:01;-6.10;99.90
16158;DHT22;8184;60.256;18.694;2023-12-28T01:14:30;-6.00;99.90
16158;DHT22;8184;60.256;18.694;2023-12-28T01:16:58;-6.10;99.90
16158;DHT22;8184;60.256;18.694;2023-12-28T01:19:26;-6.00;99.90
16158;DHT22;8184;60.256;18.694;2023-12-28T01:21:56;-6.00;99.90
16158;DHT22;8184;60.256;18.694;2023-12-28T01:24:25;-6.00;99.90
16158;DHT22;8184;60.256;18.694;2023-12-28T01:26:53;-6.00;99.90
16158;DHT22;8184;60.256;18.694;2023-12-28T01:29:21;-6.00;99.90
16158;DHT22;8184;60.256;18.694;2023-12-28T01:31:51;-6.00;99.90
16158;DHT22;8184;60.256;18.694;2023-12-28T01:34:20;-6.00;99.90
16158;DHT22;8184;60.256;18.694;2023-12-28T01:36:48;-6.10;99.90
16158;DHT22;8184;60.256;18.694;2023-12-28T01:39:18;-6.00;99.90
16158;DHT22;8184;60.256;18.694;2023-12-28T01:41:46;-5.90;99.90
16158;DHT22;8184;60.256;18.694;2023-12-28T01:44:14;-6.00;99.90
16158;DHT22;8184;60.256;18.694;2023-12-28T01:46:43;-6.00;99.90
16158;DHT22;8184;60.256;18.694;2023-12-28T01:49:11;-6.10;99.90
16158;DHT22;8184;60.256;18.694;2023-12-28T01:51:39;-6.10;99.90
16158;DHT22;8184;60.256;18.694;2023-12-28T01:54:08;-6.10;99.90
16158;DHT22;8184;60.256;18.694;2023-12-28T01:56:38;-6.10;99.90
16158;DHT22;8184;60.256;18.694;2023-12-28T01:59:07;-6.00;99.90
16158;DHT22;8184;60.256;18.694;2023-12-28T02:01:35;-6.10;99.90
16158;DHT22;8184;60.256;18.694;2023-12-28T02:04:03;-6.00;99.90
16158;DHT22;8184;60.256;18.694;2023-12-28T02:06:32;-6.10;99.90
16158;DHT22;8184;60.256;18.694;2023-12-28T02:09:00;-6.10;99.90
16158;DHT22;8184;60.256;18.694;2023-12-28T02:11:28;-6.10;99.90
16158;DHT22;8184;60.256;18.694;2023-12-28T02:13:58;-6.10;99.90
16158;DHT22;8184;60.256;18.694;2023-12-28T02:16:29;-6.10;99.90
16158;DHT22;8184;60.256;18.694;2023-12-28T02:21:28;-6.10;99.90
16158;DHT22;8184;60.256;18.694;2023-12-28T02:23:56;-6.10;99.90
16158;DHT22;8184;60.256;18.694;2023-12-28T02:26:28;-6.10;99.90
16158;DHT22;8184;60.256;18.694;2023-12-28T02:28:59;-6.20;99.90
16158;DHT22;8184;60.256;18.694;2023-12-28T02:31:30;-6.20;99.90
16158;DHT22;8184;60.256;18.694;2023-12-28T02:34:01;-6.20;99.90
16158;DHT22;8184;60.256;18.694;2023-12-28T02:36:32;-6.20;99.90
16158;DHT22;8184;60.256;18.694;2023-12-28T02:39:02;-6.20;99.90
16158;DHT22;8184;60.256;18.694;2023-12-28T02:41:33;-6.20;99.90
16158;DHT22;8184;60.256;18.694;2023-12-28T02:44:01;-6.20;99.90
16158;DHT22;8184;60.256;18.694;2023-12-28T02:46:30;-6.10;99.90
16158;DHT22;8184;60.256;18.694;2023-12-28T02:48:58;-6.00;99.90
16158;DHT22;8184;60.256;18.694;2023-12-28T02:51:26;-6.10;99.90
16158;DHT22;8184;60.256;18.694;2023-12-28T02:53:55;-6.10;99.90
16158;DHT22;8184;60.256;18.694;2023-12-28T02:56:23;-6.20;99.90
16158;DHT22;8184;60.256;18.694;2023-12-28T02:58:53;-6.20;99.90
16158;DHT22;8184;60.256;18.694;2023-12-28T03:01:21;-6.20;99.90
16158;DHT22;8184;60.256;18.694;2023-12-28T03:03:50;-6.20;99.90
16158;DHT22;8184;60.256;18.694;2023-12-28T03:06:18;-6.20;99.90
16158;DHT22;8184;60.256;18.694;2023-12-28T03:08:46;-6.20;99.90
16158;DHT22;8184;60.256;18.694;2023-12-28T03:11:14;-6.20;99.90
16158;DHT22;8184;60.256;18.694;2023-12-28T03:13:43;-6.20;99.90
16158;DHT22;8184;60.256;18.694;2023-12-28T03:16:14;-6.20;99.90
16158;DHT22;8184;60.256;18.694;2023-12-28T03:18:42;-6.20;99.90
16158;DHT22;8184;60.256;18.694;2023-12-28T03:21:11;-6.20;99.90
16158;DHT22;8184;60.256;18.694;2023-12-28T03:23:39;-6.20;99.90
16158;DHT22;8184;60.256;18.694;2023-12-28T03:26:07;-6.30;99.90
16158;DHT22;8184;60.256;18.694;2023-12-28T03:28:36;-6.30;99.90
16158;DHT22;8184;60.256;18.694;2023-12-28T03:31:04;-6.20;99.90
16158;DHT22;8184;60.256;18.694;2023-12-28T03:33:35;-6.20;99.90
16158;DHT22;8184;60.256;18.694;2023-12-28T03:36:05;-6.20;99.90
16158;DHT22;8184;60.256;18.694;2023-12-28T03:38:34;-6.30;99.90
16158;DHT22;8184;60.256;18.694;2023-12-28T03:41:02;-6.20;99.90
16158;DHT22;8184;60.256;18.694;2023-12-28T03:43:30;-6.30;99.90
16158;DHT22;8184;60.256;18.694;2023-12-28T03:45:58;-6.40;99.90
16158;DHT22;8184;60.256;18.694;2023-12-28T03:48:27;-6.40;99.90
16158;DHT22;8184;60.256;18.694;2023-12-28T03:50:57;-6.40;99.90
16158;DHT22;8184;60.256;18.694;2023-12-28T03:53:28;-6.30;99.90
16158;DHT22;8184;60.256;18.694;2023-12-28T03:55:58;-6.30;99.90
16158;DHT22;8184;60.256;18.694;2023-12-28T03:58:26;-6.30;99.90
16158;DHT22;8184;60.256;18.694;2023-12-28T04:00:54;-6.20;99.90
16158;DHT22;8184;60.256;18.694;2023-12-28T04:03:23;-6.30;99.90
16158;DHT22;8184;60.256;18.694;2023-12-28T04:05:51;-6.30;99.90
16158;DHT22;8184;60.256;18.694;2023-12-28T04:08:21;-6.40;99.90
16158;DHT22;8184;60.256;18.694;2023-12-28T04:10:49;-6.40;99.90
16158;DHT22;8184;60.256;18.694;2023-12-28T04:13:17;-6.40;99.90
16158;DHT22;8184;60.256;18.694;2023-12-28T04:15:45;-6.30;99.90
16158;DHT22;8184;60.256;18.694;2023-12-28T04:18:14;-6.40;99.90
16158;DHT22;8184;60.256;18.694;2023-12-28T04:20:43;-6.40;99.90
16158;DHT22;8184;60.256;18.694;2023-12-28T04:23:11;-6.50;99.90
16158;DHT22;8184;60.256;18.694;2023-12-28T04:25:40;-6.50;99.90
16158;DHT22;8184;60.256;18.694;2023-12-28T04:28:08;-6.40;99.90
16158;DHT22;8184;60.256;18.694;2023-12-28T04:30:37;-6.50;99.90
16158;DHT22;8184;60.256;18.694;2023-12-28T04:33:05;-6.50;99.90
16158;DHT22;8184;60.256;18.694;2023-12-28T04:35:34;-6.40;99.90
16158;DHT22;8184;60.256;18.694;2023-12-28T04:38:02;-6.40;99.90
16158;DHT22;8184;60.256;18.694;2023-12-28T04:40:30;-6.50;99.90
16158;DHT22;8184;60.256;18.694;2023-12-28T04:43:01;-6.50;99.90
16158;DHT22;8184;60.256;18.694;2023-12-28T04:45:30;-6.50;99.90
16158;DHT22;8184;60.256;18.694;2023-12-28T04:47:58;-6.50;99.90
16158;DHT22;8184;60.256;18.694;2023-12-28T04:50:27;-6.50;99.90
16158;DHT22;8184;60.256;18.694;2023-12-28T04:52:56;-6.50;99.90
16158;DHT22;8184;60.256;18.694;2023-12-28T04:55:25;-6.50;99.90
16158;DHT22;8184;60.256;18.694;2023-12-28T04:57:54;-6.50;99.90
16158;DHT22;8184;60.256;18.694;2023-12-28T05:00:27;-6.50;99.90
16158;DHT22;8184;60.256;18.694;2023-12-28T05:02:56;-6.40;99.90
16158;DHT22;8184;60.256;18.694;2023-12-28T05:05:24;-6.30;99.90
16158;DHT22;8184;60.256;18.694;2023-12-28T05:07:52;-6.30;99.90
16158;DHT22;8184;60.256;18.694;2023-12-28T05:10:27;-6.30;99.90
16158;DHT22;8184;60.256;18.694;2023-12-28T05:12:55;-6.20;99.90
16158;DHT22;8184;60.256;18.694;2023-12-28T05:15:29;-6.20;99.90
16158;DHT22;8184;60.256;18.694;2023-12-28T05:17:58;-6.20;99.90
16158;DHT22;8184;60.256;18.694;2023-12-28T05:20:26;-6.10;99.90
16158;DHT22;8184;60.256;18.694;2023-12-28T05:22:55;-6.10;99.90
16158;DHT22;8184;60.256;18.694;2023-12-28T05:25:23;-6.10;99.90
16158;DHT22;8184;60.256;18.694;2023-12-28T05:27:57;-6.10;99.90
16158;DHT22;8184;60.256;18.694;2023-12-28T05:30:26;-6.10;99.90
16158;DHT22;8184;60.256;18.694;2023-12-28T05:32:56;-6.10;99.90
16158;DHT22;8184;60.256;18.694;2023-12-28T05:35:24;-6.10;99.90
16158;DHT22;8184;60.256;18.694;2023-12-28T05:37:53;-6.10;99.90
16158;DHT22;8184;60.256;18.694;2023-12-28T05:40:21;-6.10;99.90
16158;DHT22;8184;60.256;18.694;2023-12-28T05:42:50;-6.10;99.90
16158;DHT22;8184;60.256;18.694;2023-12-28T05:45:18;-6.10;99.90
16158;DHT22;8184;60.256;18.694;2023-12-28T05:47:48;-6.00;99.90
16158;DHT22;8184;60.256;18.694;2023-12-28T05:50:18;-6.00;99.90
16158;DHT22;8184;60.256;18.694;2023-12-28T05:52:46;-5.90;99.90
16158;DHT22;8184;60.256;18.694;2023-12-28T05:55:14;-5.90;99.90
16158;DHT22;8184;60.256;18.694;2023-12-28T05:57:46;-5.90;99.90
16158;DHT22;8184;60.256;18.694;2023-12-28T06:00:14;-5.90;99.90
16158;DHT22;8184;60.256;18.694;2023-12-28T06:02:43;-5.80;99.90
16158;DHT22;8184;60.256;18.694;2023-12-28T06:05:13;-5.80;99.90
16158;DHT22;8184;60.256;18.694;2023-12-28T06:07:43;-5.70;99.90
16158;DHT22;8184;60.256;18.694;2023-12-28T06:10:11;-5.60;99.90
16158;DHT22;8184;60.256;18.694;2023-12-28T06:12:39;-5.60;99.90
16158;DHT22;8184;60.256;18.694;2023-12-28T06:15:11;-5.60;99.90
16158;DHT22;8184;60.256;18.694;2023-12-28T06:17:39;-5.60;99.90
16158;DHT22;8184;60.256;18.694;2023-12-28T06:20:08;-5.60;99.90
16158;DHT22;8184;60.256;18.694;2023-12-28T06:22:37;-5.50;99.90
16158;DHT22;8184;60.256;18.694;2023-12-28T06:25:07;-5.50;99.90
16158;DHT22;8184;60.256;18.694;2023-12-28T06:27:36;-5.40;99.90
16158;DHT22;8184;60.256;18.694;2023-12-28T06:30:05;-5.40;99.90
16158;DHT22;8184;60.256;18.694;2023-12-28T06:32:33;-5.40;99.90
16158;DHT22;8184;60.256;18.694;2023-12-28T06:35:02;-5.30;99.90
16158;DHT22;8184;60.256;18.694;2023-12-28T06:37:30;-5.30;99.90
16158;DHT22;8184;60.256;18.694;2023-12-28T06:40:03;-5.30;99.90
16158;DHT22;8184;60.256;18.694;2023-12-28T06:42:33;-5.30;99.90
16158;DHT22;8184;60.256;18.694;2023-12-28T06:45:01;-5.30;99.90
16158;DHT22;8184;60.256;18.694;2023-12-28T06:47:29;-5.20;99.90
16158;DHT22;8184;60.256;18.694;2023-12-28T06:49:58;-5.20;99.90
16158;DHT22;8184;60.256;18.694;2023-12-28T06:52:29;-5.20;99.90
16158;DHT22;8184;60.256;18.694;2023-12-28T06:54:58;-5.20;99.90
16158;DHT22;8184;60.256;18.694;2023-12-28T06:57:27;-5.10;99.90
16158;DHT22;8184;60.256;18.694;2023-12-28T06:59:56;-5.10;99.90
16158;DHT22;8184;60.256;18.694;2023-12-28T07:02:26;-5.10;99.90
16158;DHT22;8184;60.256;18.694;2023-12-28T07:04:55;-5.10;99.90
16158;DHT22;8184;60.256;18.694;2023-12-28T07:07:23;-5.10;99.90
16158;DHT22;8184;60.256;18.694;2023-12-28T07:09:51;-5.10;99.90
16158;DHT22;8184;60.256;18.694;2023-12-28T07:12:20;-5.10;99.90
16158;DHT22;8184;60.256;18.694;2023-12-28T07:14:49;-5.10;99.90
16158;DHT22;8184;60.256;18.694;2023-12-28T07:17:21;-5.10;99.90
16158;DHT22;8184;60.256;18.694;2023-12-28T07:19:49;-5.10;99.90
16158;DHT22;8184;60.256;18.694;2023-12-28T07:22:17;-5.20;99.90
16158;DHT22;8184;60.256;18.694;2023-12-28T07:24:46;-5.20;99.90
16158;DHT22;8184;60.256;18.694;2023-12-28T07:27:14;-5.20;99.90
16158;DHT22;8184;60.256;18.694;2023-12-28T07:29:42;-5.20;99.90
16158;DHT22;8184;60.256;18.694;2023-12-28T07:32:10;-5.20;99.90
16158;DHT22;8184;60.256;18.694;2023-12-28T07:34:40;-5.20;99.90
16158;DHT22;8184;60.256;18.694;2023-12-28T07:37:09;-5.20;99.90
16158;DHT22;8184;60.256;18.694;2023-12-28T07:39:40;-5.20;99.90
16158;DHT22;8184;60.256;18.694;2023-12-28T07:42:10;-5.20;99.90
16158;DHT22;8184;60.256;18.694;2023-12-28T07:44:38;-5.20;99.90
16158;DHT22;8184;60.256;18.694;2023-12-28T07:47:07;-5.20;99.90
16158;DHT22;8184;60.256;18.694;2023-12-28T07:49:36;-5.20;99.90
16158;DHT22;8184;60.256;18.694;2023-12-28T07:52:06;-5.20;99.90
16158;DHT22;8184;60.256;18.694;2023-12-28T07:54:34;-5.20;99.90
16158;DHT22;8184;60.256;18.694;2023-12-28T07:57:02;-5.20;99.90
16158;DHT22;8184;60.256;18.694;2023-12-28T07:59:31;-5.20;99.90
16158;DHT22;8184;60.256;18.694;2023-12-28T08:01:59;-5.30;99.90
16158;DHT22;8184;60.256;18.694;2023-12-28T08:04:27;-5.30;99.90
16158;DHT22;8184;60.256;18.694;2023-12-28T08:06:56;-5.30;99.90
16158;DHT22;8184;60.256;18.694;2023-12-28T08:09:26;-5.40;99.90
16158;DHT22;8184;60.256;18.694;2023-12-28T08:11:55;-5.30;99.90
16158;DHT22;8184;60.256;18.694;2023-12-28T08:14:23;-5.20;99.90
16158;DHT22;8184;60.256;18.694;2023-12-28T08:16:51;-5.20;99.90
16158;DHT22;8184;60.256;18.694;2023-12-28T08:19:20;-5.10;99.90
16158;DHT22;8184;60.256;18.694;2023-12-28T08:21:48;-4.80;99.90
16158;DHT22;8184;60.256;18.694;2023-12-28T08:24:17;-4.60;99.90
16158;DHT22;8184;60.256;18.694;2023-12-28T08:26:46;-4.50;99.90
16158;DHT22;8184;60.256;18.694;2023-12-28T08:29:15;-4.40;99.90
16158;DHT22;8184;60.256;18.694;2023-12-28T08:31:45;-4.30;99.90
16158;DHT22;8184;60.256;18.694;2023-12-28T08:34:14;-4.40;99.90
16158;DHT22;8184;60.256;18.694;2023-12-28T08:36:42;-4.20;99.90
16158;DHT22;8184;60.256;18.694;2023-12-28T08:39:13;-4.20;99.90
16158;DHT22;8184;60.256;18.694;2023-12-28T08:41:42;-4.20;99.90
16158;DHT22;8184;60.256;18.694;2023-12-28T08:44:11;-4.10;99.90
16158;DHT22;8184;60.256;18.694;2023-12-28T08:46:39;-4.00;99.90
16158;DHT22;8184;60.256;18.694;2023-12-28T08:49:08;-3.90;99.90
16158;DHT22;8184;60.256;18.694;2023-12-28T08:51:36;-3.90;99.90
16158;DHT22;8184;60.256;18.694;2023-12-28T08:54:09;-3.80;99.90
16158;DHT22;8184;60.256;18.694;2023-12-28T08:56:37;-3.70;99.90
16158;DHT22;8184;60.256;18.694;2023-12-28T08:59:05;-3.70;99.90
16158;DHT22;8184;60.256;18.694;2023-12-28T09:01:35;-3.70;99.90
16158;DHT22;8184;60.256;18.694;2023-12-28T09:04:04;-3.60;99.90
16158;DHT22;8184;60.256;18.694;2023-12-28T09:06:32;-3.50;99.90
16158;DHT22;8184;60.256;18.694;2023-12-28T09:09:02;-3.40;99.90
16158;DHT22;8184;60.256;18.694;2023-12-28T09:11:31;-3.30;99.90
16158;DHT22;8184;60.256;18.694;2023-12-28T09:13:59;-3.30;99.90
16158;DHT22;8184;60.256;18.694;2023-12-28T09:16:27;-3.10;99.90
16158;DHT22;8184;60.256;18.694;2023-12-28T09:18:57;-3.00;99.90
16158;DHT22;8184;60.256;18.694;2023-12-28T09:21:29;-2.90;99.90
16158;DHT22;8184;60.256;18.694;2023-12-28T09:23:57;-2.80;99.90
16158;DHT22;8184;60.256;18.694;2023-12-28T09:26:25;-2.70;99.90
16158;DHT22;8184;60.256;18.694;2023-12-28T09:28:54;-2.60;99.90
16158;DHT22;8184;60.256;18.694;2023-12-28T09:31:22;-2.50;99.90
16158;DHT22;8184;60.256;18.694;2023-12-28T09:33:54;-2.40;99.90
16158;DHT22;8184;60.256;18.694;2023-12-28T09:36:24;-2.40;99.90
16158;DHT22;8184;60.256;18.694;2023-12-28T09:38:52;-2.10;99.90
16158;DHT22;8184;60.256;18.694;2023-12-28T09:41:21;-2.10;99.90
16158;DHT22;8184;60.256;18.694;2023-12-28T09:43:50;-1.90;99.90
16158;DHT22;8184;60.256;18.694;2023-12-28T09:46:23;-1.80;99.90
16158;DHT22;8184;60.256;18.694;2023-12-28T09:48:53;-1.80;99.90
16158;DHT22;8184;60.256;18.694;2023-12-28T09:51:25;-1.60;99.90
16158;DHT22;8184;60.256;18.694;2023-12-28T09:53:53;-1.50;99.90
16158;DHT22;8184;60.256;18.694;2023-12-28T09:56:22;-1.50;99.90
16158;DHT22;8184;60.256;18.694;2023-12-28T09:58:54;-1.40;99.90
16158;DHT22;8184;60.256;18.694;2023-12-28T10:01:24;-1.30;99.90
16158;DHT22;8184;60.256;18.694;2023-12-28T10:03:54;-1.30;99.90
16158;DHT22;8184;60.256;18.694;2023-12-28T10:06:22;-1.20;99.90
16158;DHT22;8184;60.256;18.694;2023-12-28T10:08:52;-1.10;99.90
16158;DHT22;8184;60.256;18.694;2023-12-28T10:11:22;-1.10;99.90
16158;DHT22;8184;60.256;18.694;2023-12-28T10:13:50;-1.20;99.90
16158;DHT22;8184;60.256;18.694;2023-12-28T10:16:19;-1.10;99.90
16158;DHT22;8184;60.256;18.694;2023-12-28T10:18:47;-1.20;99.90
16158;DHT22;8184;60.256;18.694;2023-12-28T10:21:16;-1.20;99.90
16158;DHT22;8184;60.256;18.694;2023-12-28T10:23:44;-1.30;99.90
16158;DHT22;8184;60.256;18.694;2023-12-28T10:26:14;-1.30;99.90
16158;DHT22;8184;60.256;18.694;2023-12-28T10:28:42;-1.40;99.90
16158;DHT22;8184;60.256;18.694;2023-12-28T10:31:11;-1.30;99.90
16158;DHT22;8184;60.256;18.694;2023-12-28T10:33:40;-1.30;99.90
16158;DHT22;8184;60.256;18.694;2023-12-28T10:36:09;-1.40;99.90
16158;DHT22;8184;60.256;18.694;2023-12-28T10:38:38;-1.40;99.90
16158;DHT22;8184;60.256;18.694;2023-12-28T10:41:08;-1.30;99.90
16158;DHT22;8184;60.256;18.694;2023-12-28T10:43:40;-1.30;99.90
16158;DHT22;8184;60.256;18.694;2023-12-28T10:46:11;-1.30;99.90
16158;DHT22;8184;60.256;18.694;2023-12-28T10:48:43;-1.30;99.90
16158;DHT22;8184;60.256;18.694;2023-12-28T10:51:15;-1.20;99.90
16158;DHT22;8184;60.256;18.694;2023-12-28T10:53:48;-1.20;99.90
16158;DHT22;8184;60.256;18.694;2023-12-28T10:56:20;-1.10;99.90
16158;DHT22;8184;60.256;18.694;2023-12-28T10:58:58;-1.10;99.90
16158;DHT22;8184;60.256;18.694;2023-12-28T11:01:31;-1.00;99.90
16158;DHT22;8184;60.256;18.694;2023-12-28T11:04:02;-1.00;99.90
16158;DHT22;8184;60.256;18.694;2023-12-28T11:06:32;-1.00;99.90
16158;DHT22;8184;60.256;18.694;2023-12-28T11:09:00;-0.90;99.90
16158;DHT22;8184;60.256;18.694;2023-12-28T11:11:31;-0.90;99.90
16158;DHT22;8184;60.256;18.694;2023-12-28T11:14:01;-0.90;99.90
16158;DHT22;8184;60.256;18.694;2023-12-28T11:16:30;-0.90;99.90
16158;DHT22;8184;60.256;18.694;2023-12-28T11:19:00;-0.70;99.90
16158;DHT22;8184;60.256;18.694;2023-12-28T11:21:29;-0.70;99.90
16158;DHT22;8184;60.256;18.694;2023-12-28T11:23:58;-0.60;99.90
16158;DHT22;8184;60.256;18.694;2023-12-28T11:26:26;-0.60;99.90
16158;DHT22;8184;60.256;18.694;2023-12-28T11:29:00;-0.50;99.90
16158;DHT22;8184;60.256;18.694;2023-12-28T11:31:31;-0.50;99.90
16158;DHT22;8184;60.256;18.694;2023-12-28T11:34:00;-0.50;99.90
16158;DHT22;8184;60.256;18.694;2023-12-28T11:36:32;-0.50;99.90
16158;DHT22;8184;60.256;18.694;2023-12-28T11:39:02;-0.40;99.90
16158;DHT22;8184;60.256;18.694;2023-12-28T11:41:31;-0.40;99.90
16158;DHT22;8184;60.256;18.694;2023-12-28T11:44:03;-0.40;99.90
16158;DHT22;8184;60.256;18.694;2023-12-28T11:46:34;-0.30;99.90
16158;DHT22;8184;60.256;18.694;2023-12-28T11:49:03;-0.20;99.90
16158;DHT22;8184;60.256;18.694;2023-12-28T11:51:33;-0.30;99.90
16158;DHT22;8184;60.256;18.694;2023-12-28T11:54:02;-0.20;99.90
16158;DHT22;8184;60.256;18.694;2023-12-28T11:56:30;-0.30;99.90
16158;DHT22;8184;60.256;18.694;2023-12-28T11:58:59;-0.20;99.90
16158;DHT22;8184;60.256;18.694;2023-12-28T12:01:27;-0.10;99.90
16158;DHT22;8184;60.256;18.694;2023-12-28T12:03:58;-0.10;99.90
16158;DHT22;8184;60.256;18.694;2023-12-28T12:06:26;-0.10;99.90
16158;DHT22;8184;60.256;18.694;2023-12-28T12:08:56;-0.10;99.90
16158;DHT22;8184;60.256;18.694;2023-12-28T12:11:25;-0.10;99.90
16158;DHT22;8184;60.256;18.694;2023-12-28T12:13:55;-0.10;99.90
16158;DHT22;8184;60.256;18.694;2023-12-28T12:16:23;0.00;99.90
16158;DHT22;8184;60.256;18.694;2023-12-28T12:18:51;0.00;99.90
16158;DHT22;8184;60.256;18.694;2023-12-28T12:21:24;0.00;99.90
16158;DHT22;8184;60.256;18.694;2023-12-28T12:23:54;0.00;99.90
16158;DHT22;8184;60.256;18.694;2023-12-28T12:26:22;0.10;99.90
16158;DHT22;8184;60.256;18.694;2023-12-28T12:28:53;0.10;99.90
16158;DHT22;8184;60.256;18.694;2023-12-28T12:31:21;0.10;99.90
16158;DHT22;8184;60.256;18.694;2023-12-28T12:33:49;0.10;99.90
16158;DHT22;8184;60.256;18.694;2023-12-28T12:36:19;0.10;99.90
16158;DHT22;8184;60.256;18.694;2023-12-28T12:38:49;0.10;99.90
16158;DHT22;8184;60.256;18.694;2023-12-28T12:41:17;0.10;99.90
16158;DHT22;8184;60.256;18.694;2023-12-28T12:43:46;0.10;99.90
16158;DHT22;8184;60.256;18.694;2023-12-28T12:46:14;0.20;99.90
16158;DHT22;8184;60.256;18.694;2023-12-28T12:48:45;0.30;99.90
16158;DHT22;8184;60.256;18.694;2023-12-28T12:51:22;0.20;99.90
16158;DHT22;8184;60.256;18.694;2023-12-28T12:53:55;0.30;99.90
16158;DHT22;8184;60.256;18.694;2023-12-28T12:56:23;0.30;99.90
16158;DHT22;8184;60.256;18.694;2023-12-28T12:58:51;0.30;99.90
16158;DHT22;8184;60.256;18.694;2023-12-28T13:01:20;0.30;99.90
16158;DHT22;8184;60.256;18.694;2023-12-28T13:03:49;0.30;99.90
16158;DHT22;8184;60.256;18.694;2023-12-28T13:06:18;0.30;99.90
16158;DHT22;8184;60.256;18.694;2023-12-28T13:08:50;0.30;99.90
16158;DHT22;8184;60.256;18.694;2023-12-28T13:11:19;0.40;99.90
16158;DHT22;8184;60.256;18.694;2023-12-28T13:13:53;0.40;99.90
16158;DHT22;8184;60.256;18.694;2023-12-28T13:16:21;0.30;99.90
16158;DHT22;8184;60.256;18.694;2023-12-28T13:18:49;0.30;99.90
16158;DHT22;8184;60.256;18.694;2023-12-28T13:21:18;0.40;99.90
16158;DHT22;8184;60.256;18.694;2023-12-28T13:23:46;0.40;99.90
16158;DHT22;8184;60.256;18.694;2023-12-28T13:26:14;0.40;99.90
16158;DHT22;8184;60.256;18.694;2023-12-28T13:28:44;0.50;99.90
16158;DHT22;8184;60.256;18.694;2023-12-28T13:31:12;0.40;99.90
16158;DHT22;8184;60.256;18.694;2023-12-28T13:33:41;0.50;99.90
16158;DHT22;8184;60.256;18.694;2023-12-28T13:36:09;0.50;99.90
16158;DHT22;8184;60.256;18.694;2023-12-28T13:38:39;0.50;99.90
16158;DHT22;8184;60.256;18.694;2023-12-28T13:41:07;0.40;99.90
16158;DHT22;8184;60.256;18.694;2023-12-28T13:43:35;0.60;99.90
16158;DHT22;8184;60.256;18.694;2023-12-28T13:46:07;0.60;99.90
16158;DHT22;8184;60.256;18.694;2023-12-28T13:48:35;0.60;99.90
16158;DHT22;8184;60.256;18.694;2023-12-28T13:51:06;0.60;99.90
16158;DHT22;8184;60.256;18.694;2023-12-28T13:53:34;0.60;99.90
16158;DHT22;8184;60.256;18.694;2023-12-28T13:56:08;0.70;99.90
16158;DHT22;8184;60.256;18.694;2023-12-28T13:58:39;0.70;99.90
16158;DHT22;8184;60.256;18.694;2023-12-28T14:01:09;0.70;99.90
16158;DHT22;8184;60.256;18.694;2023-12-28T14:03:37;0.70;99.90
16158;DHT22;8184;60.256;18.694;2023-12-28T14:06:06;0.70;99.90
16158;DHT22;8184;60.256;18.694;2023-12-28T14:08:35;0.70;99.90
16158;DHT22;8184;60.256;18.694;2023-12-28T14:11:04;0.80;99.90
16158;DHT22;8184;60.256;18.694;2023-12-28T14:13:34;0.80;99.90
16158;DHT22;8184;60.256;18.694;2023-12-28T14:16:03;0.80;99.90
16158;DHT22;8184;60.256;18.694;2023-12-28T14:18:33;0.90;99.90
16158;DHT22;8184;60.256;18.694;2023-12-28T14:21:02;0.90;99.90
16158;DHT22;8184;60.256;18.694;2023-12-28T14:23:30;0.90;99.90
16158;DHT22;8184;60.256;18.694;2023-12-28T14:25:59;0.90;99.90
16158;DHT22;8184;60.256;18.694;2023-12-28T14:28:28;0.90;99.90
16158;DHT22;8184;60.256;18.694;2023-12-28T14:30:58;0.80;99.90
16158;DHT22;8184;60.256;18.694;2023-12-28T14:33:27;0.90;99.90
16158;DHT22;8184;60.256;18.694;2023-12-28T14:35:58;0.90;99.90
16158;DHT22;8184;60.256;18.694;2023-12-28T14:38:26;1.00;99.90
16158;DHT22;8184;60.256;18.694;2023-12-28T14:40:55;1.00;99.90
16158;DHT22;8184;60.256;18.694;2023-12-28T14:43:24;1.00;99.90
16158;DHT22;8184;60.256;18.694;2023-12-28T14:45:52;1.10;99.90
16158;DHT22;8184;60.256;18.694;2023-12-28T14:48:20;1.10;99.90
16158;DHT22;8184;60.256;18.694;2023-12-28T14:50:49;1.10;99.90
16158;DHT22;8184;60.256;18.694;2023-12-28T14:53:18;1.10;99.90
16158;DHT22;8184;60.256;18.694;2023-12-28T14:55:46;1.20;99.90
16158;DHT22;8184;60.256;18.694;2023-12-28T14:58:15;1.10;99.90
16158;DHT22;8184;60.256;18.694;2023-12-28T15:00:45;1.20;99.90
16158;DHT22;8184;60.256;18.694;2023-12-28T15:03:14;1.20;99.90
16158;DHT22;8184;60.256;18.694;2023-12-28T15:05:42;1.30;99.90
16158;DHT22;8184;60.256;18.694;2023-12-28T15:08:11;1.30;99.90
16158;DHT22;8184;60.256;18.694;2023-12-28T15:10:41;1.20;99.90
16158;DHT22;8184;60.256;18.694;2023-12-28T15:13:09;1.20;99.90
16158;DHT22;8184;60.256;18.694;2023-12-28T15:15:38;1.20;99.90
16158;DHT22;8184;60.256;18.694;2023-12-28T15:18:07;1.40;99.90
16158;DHT22;8184;60.256;18.694;2023-12-28T15:20:36;1.30;99.90
16158;DHT22;8184;60.256;18.694;2023-12-28T15:23:04;1.40;99.90
16158;DHT22;8184;60.256;18.694;2023-12-28T15:25:33;1.40;99.90
16158;DHT22;8184;60.256;18.694;2023-12-28T15:28:03;1.40;99.90
16158;DHT22;8184;60.256;18.694;2023-12-28T15:30:32;1.30;99.90
16158;DHT22;8184;60.256;18.694;2023-12-28T15:33:01;1.30;99.90
16158;DHT22;8184;60.256;18.694;2023-12-28T15:35:30;1.40;99.90
16158;DHT22;8184;60.256;18.694;2023-12-28T15:37:58;1.30;99.90
16158;DHT22;8184;60.256;18.694;2023-12-28T15:40:27;1.30;99.90
16158;DHT22;8184;60.256;18.694;2023-12-28T15:42:55;1.40;99.90
16158;DHT22;8184;60.256;18.694;2023-12-28T15:45:25;1.40;99.90
16158;DHT22;8184;60.256;18.694;2023-12-28T15:47:54;1.40;99.90